Time;durP1;ratioP1;P1;durP2;ratioP2;P2;SDS_P1;SDS_P2;PMS_P1;PMS_P2;Temp;Humidity;BMP_temperature;BMP_pressure;BME280_temperature;BME280_humidity;BME280_pressure;Samples;Min_cycle;Max_cycle;Signal;HPM_P1;HPM_P2
2022/03/14 00:02:03;;;;;;;20.17;13.67;;;;;;;6.53;32.13;101837.53;5000055;28;20759;-53
2022/03/14 00:04:29;;;;;;;19.07;12.27;;;;;;;6.45;30.95;101838.97;4989487;28;20295;-54
2022/03/14 00:06:55;;;;;;;16.67;12.63;;;;;;;6.48;31.99;101839.09;4999182;28;20995;-53
2022/03/14 00:09:22;;;;;;;19.33;13.37;;;;;;;6.46;31.63;101840.78;5003691;28;20265;-54
2022/03/14 00:11:51;;;;;;;18.80;12.57;;;;;;;6.38;31.43;101842.22;5002690;28;21413;-54
2022/03/14 00:14:18;;;;;;;16.97;12.27;;;;;;;6.35;31.37;101847.31;5002989;28;20768;-53
2022/03/14 00:16:46;;;;;;;15.00;11.43;;;;;;;6.34;32.34;101843.84;5004753;28;20237;-54
2022/03/14 00:19:13;;;;;;;20.27;12.97;;;;;;;6.34;32.91;101840.34;4997585;28;20233;-54
2022/03/14 00:21:41;;;;;;;21.03;13.30;;;;;;;6.09;31.95;101839.50;4998955;28;20237;-54
2022/03/14 00:24:08;;;;;;;20.77;13.37;;;;;;;6.46;32.12;101830.34;4999652;28;20233;-53
2022/03/14 00:26:35;;;;;;;19.97;13.87;;;;;;;6.20;31.74;101838.16;5013442;28;21001;-54
2022/03/14 00:29:04;;;;;;;16.87;12.10;;;;;;;6.10;32.44;101835.16;5001088;28;20230;-53
2022/03/14 00:31:30;;;;;;;17.20;12.83;;;;;;;6.05;31.85;101829.81;5003776;28;20584;-54
2022/03/14 00:33:56;;;;;;;16.70;12.33;;;;;;;5.99;32.14;101832.19;4996925;28;20722;-54
2022/03/14 00:36:25;;;;;;;19.07;12.47;;;;;;;6.01;32.79;101825.31;5002281;28;20241;-54
2022/03/14 00:38:52;;;;;;;17.77;13.03;;;;;;;6.00;32.50;101828.75;5006617;28;20344;-53
2022/03/14 00:41:18;;;;;;;18.83;12.83;;;;;;;6.11;32.83;101835.25;5007351;28;20241;-52
2022/03/14 00:43:45;;;;;;;16.17;11.97;;;;;;;6.10;32.75;101832.56;5005818;28;20264;-54
2022/03/14 00:46:15;;;;;;;19.80;12.97;;;;;;;6.02;32.28;101837.50;5007305;28;20339;-53
2022/03/14 00:48:42;;;;;;;19.40;13.13;;;;;;;6.08;33.19;101835.13;5005225;28;20344;-53
2022/03/14 00:51:08;;;;;;;18.70;12.27;;;;;;;5.93;33.16;101830.28;5006704;28;20280;-53
2022/03/14 00:53:35;;;;;;;20.53;13.63;;;;;;;5.96;32.19;101837.28;5005027;28;20299;-54
2022/03/14 00:56:01;;;;;;;22.10;12.87;;;;;;;5.77;32.61;101825.28;5007775;28;20733;-55
2022/03/14 00:58:29;;;;;;;21.33;14.63;;;;;;;5.91;33.48;101837.09;5005231;28;20312;-54
2022/03/14 01:00:55;;;;;;;19.73;13.93;;;;;;;5.83;32.71;101827.25;5004065;28;20245;-53
2022/03/14 01:03:23;;;;;;;18.83;12.67;;;;;;;5.90;32.64;101826.63;5006383;28;20691;-54
2022/03/14 01:05:49;;;;;;;25.03;13.67;;;;;;;5.86;33.33;101811.69;5005765;28;20221;-53
2022/03/14 01:08:16;;;;;;;21.67;12.73;;;;;;;5.69;33.95;101826.75;5006277;28;20249;-54
2022/03/14 01:10:43;;;;;;;19.90;13.80;;;;;;;5.63;33.27;101816.09;5003589;28;20292;-52
2022/03/14 01:13:11;;;;;;;17.97;12.73;;;;;;;5.56;32.90;101820.19;5006786;28;20310;-53
2022/03/14 01:15:37;;;;;;;26.70;14.87;;;;;;;5.64;33.78;101821.34;5004666;28;20241;-54
2022/03/14 01:18:05;;;;;;;24.27;14.57;;;;;;;5.68;34.44;101815.41;5007111;28;20229;-53
2022/03/14 01:20:33;;;;;;;21.90;13.10;;;;;;;5.69;33.42;101814.59;5006939;28;20240;-53
2022/03/14 01:22:59;;;;;;;18.50;13.30;;;;;;;5.67;34.12;101821.47;5006308;28;20240;-54
2022/03/14 01:25:26;;;;;;;18.77;12.83;;;;;;;5.83;33.64;101822.91;5002097;28;20327;-54
2022/03/14 01:27:53;;;;;;;19.30;13.73;;;;;;;5.58;33.04;101828.06;5005846;28;20320;-53
2022/03/14 01:30:19;;;;;;;19.20;13.70;;;;;;;5.66;33.00;101824.91;5005639;28;20237;-53
2022/03/14 01:32:45;;;;;;;22.10;13.77;;;;;;;5.62;32.91;101822.16;5007651;28;20225;-54
2022/03/14 01:35:12;;;;;;;19.50;13.37;;;;;;;5.60;33.85;101824.69;5006547;28;20359;-55
2022/03/14 01:37:40;;;;;;;17.80;13.00;;;;;;;5.74;34.48;101828.66;5006479;28;20288;-54
2022/03/14 01:40:09;;;;;;;21.20;14.40;;;;;;;5.87;32.88;101826.53;5006661;28;20265;-54
2022/03/14 01:42:37;;;;;;;21.63;13.40;;;;;;;5.63;32.20;101830.00;5006497;28;20237;-53
2022/03/14 01:45:04;;;;;;;21.10;13.83;;;;;;;5.41;33.00;101824.84;5005213;28;20247;-55
2022/03/14 01:47:34;;;;;;;22.60;13.40;;;;;;;5.57;34.77;101821.97;5007420;28;20832;-53
2022/03/14 01:50:00;;;;;;;22.53;13.10;;;;;;;5.62;33.47;101825.63;5005651;28;20383;-53
2022/03/14 01:52:27;;;;;;;19.50;13.73;;;;;;;5.58;33.74;101813.34;5006156;28;20896;-54
2022/03/14 01:54:54;;;;;;;18.77;14.53;;;;;;;5.81;34.63;101821.97;4999833;28;20225;-53
2022/03/14 01:57:21;;;;;;;23.10;14.00;;;;;;;5.47;33.53;101815.50;5005935;28;20228;-54
2022/03/14 01:59:47;;;;;;;20.33;13.43;;;;;;;5.64;35.00;101823.94;5005572;28;20244;-53
2022/03/14 02:02:14;;;;;;;21.27;14.07;;;;;;;5.50;34.85;101822.56;5004827;28;20306;-54
2022/03/14 02:04:40;;;;;;;21.67;13.13;;;;;;;5.56;34.03;101825.41;5006285;28;20237;-54
2022/03/14 02:07:06;;;;;;;18.00;12.07;;;;;;;5.69;34.97;101822.41;5006226;28;20663;-53
2022/03/14 02:09:33;;;;;;;21.60;14.83;;;;;;;5.43;34.13;101817.94;5000563;28;20605;-52
2022/03/14 02:12:09;;;;;;;20.97;13.43;;;;;;;5.25;33.73;101826.84;4999837;28;20257;-53
2022/03/14 02:14:39;;;;;;;20.27;12.73;;;;;;;5.25;35.52;101819.03;5005704;28;20232;-55
2022/03/14 02:17:06;;;;;;;20.93;13.53;;;;;;;5.30;34.73;101815.72;5000225;28;20241;-54
2022/03/14 02:19:34;;;;;;;19.80;12.40;;;;;;;5.23;33.77;101815.50;5004268;28;20324;-53
2022/03/14 02:22:02;;;;;;;21.17;12.87;;;;;;;5.32;34.48;101811.47;5005488;28;20233;-54
2022/03/14 02:24:29;;;;;;;22.77;12.80;;;;;;;5.36;34.41;101815.94;5005183;28;20248;-54
2022/03/14 02:26:56;;;;;;;17.67;12.83;;;;;;;5.29;34.81;101804.41;5004554;28;20323;-52
2022/03/14 02:29:23;;;;;;;21.47;12.83;;;;;;;5.23;34.71;101807.69;5005464;28;20237;-52
2022/03/14 02:31:50;;;;;;;21.07;13.87;;;;;;;5.24;35.07;101796.44;5005311;28;20268;-53
2022/03/14 02:34:17;;;;;;;25.27;13.80;;;;;;;5.42;35.69;101805.78;5005858;28;20864;-52
2022/03/14 02:36:45;;;;;;;16.93;12.00;;;;;;;5.49;35.17;101812.97;5003960;28;20257;-53
2022/03/14 02:39:13;;;;;;;20.33;12.83;;;;;;;5.50;34.55;101812.13;5005046;28;20261;-52
2022/03/14 02:41:39;;;;;;;20.93;12.83;;;;;;;5.41;33.68;101812.72;4993231;28;20312;-53
2022/03/14 02:44:08;;;;;;;23.57;13.97;;;;;;;5.11;34.09;101828.03;5007059;28;20241;-53
2022/03/14 02:46:36;;;;;;;21.17;13.43;;;;;;;5.40;35.09;101833.47;5002828;28;20241;-52
2022/03/14 02:49:02;;;;;;;23.93;13.13;;;;;;;5.39;35.59;101834.31;5006921;28;20240;-53
2022/03/14 02:51:28;;;;;;;21.07;13.03;;;;;;;5.09;33.78;101836.59;5007359;28;20272;-52
2022/03/14 02:53:55;;;;;;;16.53;12.33;;;;;;;5.33;35.79;101840.16;5005222;28;20237;-52
2022/03/14 02:56:23;;;;;;;19.63;13.30;;;;;;;5.38;34.18;101835.13;5004398;28;20260;-52
2022/03/14 02:58:52;;;;;;;19.40;12.63;;;;;;;5.47;35.18;101830.25;5005474;28;20264;-54
2022/03/14 03:01:18;;;;;;;20.70;13.50;;;;;;;5.31;34.60;101833.13;5003905;28;20243;-53
2022/03/14 03:03:45;;;;;;;23.53;13.03;;;;;;;5.11;34.23;101830.63;5005296;28;20236;-54
2022/03/14 03:06:13;;;;;;;19.47;12.57;;;;;;;5.14;34.21;101837.69;5004099;28;20252;-54
2022/03/14 03:08:43;;;;;;;24.50;13.30;;;;;;;5.15;34.32;101836.84;5004584;28;20809;-54
2022/03/14 03:11:11;;;;;;;17.10;11.80;;;;;;;5.17;35.57;101843.91;5001715;28;20668;-54
2022/03/14 03:13:40;;;;;;;20.23;12.87;;;;;;;5.09;35.24;101842.72;5005523;28;20271;-53
2022/03/14 03:16:28;;;;;;;22.67;13.40;;;;;;;4.97;34.43;101847.44;5003187;28;20233;-53
2022/03/14 03:18:55;;;;;;;19.63;13.53;;;;;;;5.02;35.52;101845.91;4987004;28;20316;-54
2022/03/14 03:21:22;;;;;;;20.60;12.70;;;;;;;4.94;34.17;101848.19;5000674;28;20233;-54
2022/03/14 03:23:48;;;;;;;21.93;12.97;;;;;;;4.96;36.09;101849.16;5003368;28;20307;-52
2022/03/14 03:26:15;;;;;;;18.37;13.20;;;;;;;5.05;34.09;101861.63;5002524;28;20745;-53
2022/03/14 03:28:42;;;;;;;19.03;12.37;;;;;;;5.08;35.87;101864.34;5001675;28;20280;-53
2022/03/14 03:31:10;;;;;;;19.77;11.93;;;;;;;4.99;34.17;101874.41;5003005;28;20319;-52
2022/03/14 03:33:38;;;;;;;22.50;13.10;;;;;;;5.00;35.51;101869.25;5000813;28;20296;-53
2022/03/14 03:36:05;;;;;;;19.13;13.77;;;;;;;4.91;34.91;101865.41;5002469;28;20283;-52
2022/03/14 03:38:31;;;;;;;22.67;13.63;;;;;;;5.14;35.93;101867.19;5004860;28;20293;-53
2022/03/14 03:40:57;;;;;;;19.23;12.33;;;;;;;5.03;35.25;101873.72;5004353;28;20264;-53
2022/03/14 03:43:24;;;;;;;20.30;13.77;;;;;;;5.09;35.33;101862.63;5004509;28;20237;-52
2022/03/14 03:45:51;;;;;;;24.93;13.23;;;;;;;4.78;34.74;101867.50;5004393;28;20233;-54
2022/03/14 03:48:18;;;;;;;19.60;12.63;;;;;;;4.68;35.79;101870.56;5003929;28;20252;-54
2022/03/14 03:50:44;;;;;;;18.97;12.43;;;;;;;4.78;35.79;101872.72;5002690;28;20244;-54
2022/03/14 03:53:11;;;;;;;20.43;12.87;;;;;;;4.99;36.38;101874.41;5002820;28;20256;-55
2022/03/14 03:55:37;;;;;;;18.00;13.03;;;;;;;4.79;34.65;101874.47;5004615;28;20237;-54
2022/03/14 03:58:04;;;;;;;18.27;12.80;;;;;;;4.91;36.65;101868.88;5004349;28;20257;-54
2022/03/14 04:00:30;;;;;;;17.77;11.93;;;;;;;4.98;35.60;101872.63;4999422;28;20238;-54
2022/03/14 04:02:58;;;;;;;21.27;13.80;;;;;;;4.83;35.18;101864.22;4998486;28;20269;-54
2022/03/14 04:05:27;;;;;;;22.57;13.27;;;;;;;4.87;35.53;101866.09;5004335;28;20276;-54
2022/03/14 04:07:54;;;;;;;21.03;13.47;;;;;;;4.80;35.36;101862.34;5001794;28;20614;-53
2022/03/14 04:10:20;;;;;;;18.63;13.07;;;;;;;4.88;36.37;101857.47;5003953;28;20237;-54
2022/03/14 04:12:47;;;;;;;18.93;12.70;;;;;;;4.85;34.97;101862.56;5005037;28;20243;-54
2022/03/14 04:15:14;;;;;;;17.83;11.57;;;;;;;4.81;35.25;101851.16;5005603;28;20237;-53
2022/03/14 04:17:42;;;;;;;17.33;13.67;;;;;;;4.62;35.05;101859.00;5008689;28;20232;-52
2022/03/14 04:20:12;;;;;;;19.90;12.43;;;;;;;4.81;36.39;101863.25;5007964;28;20264;-53
2022/03/14 04:22:38;;;;;;;16.50;11.57;;;;;;;5.00;36.72;101868.38;5006912;28;20232;-53
2022/03/14 04:25:06;;;;;;;22.80;12.67;;;;;;;4.97;35.35;101870.84;5006982;28;20251;-54
2022/03/14 04:27:32;;;;;;;23.10;13.30;;;;;;;4.93;35.58;101874.16;5007097;28;20284;-54
2022/03/14 04:29:59;;;;;;;17.90;12.83;;;;;;;4.79;34.89;101877.09;5007937;28;20260;-53
2022/03/14 04:32:26;;;;;;;18.90;12.30;;;;;;;4.87;35.01;101881.72;5008790;28;20654;-54
2022/03/14 04:34:52;;;;;;;21.47;13.33;;;;;;;4.97;35.26;101876.94;5010141;28;20321;-52
2022/03/14 04:37:20;;;;;;;19.93;13.00;;;;;;;5.20;36.57;101875.25;5006096;28;20229;-54
2022/03/14 04:39:46;;;;;;;18.53;12.80;;;;;;;5.06;34.41;101879.03;5008337;28;20259;-54
2022/03/14 04:42:14;;;;;;;21.27;13.40;;;;;;;5.18;35.99;101873.41;5007320;28;20265;-53
2022/03/14 04:44:41;;;;;;;17.73;12.37;;;;;;;5.09;36.31;101873.03;5005666;28;20237;-55
2022/03/14 04:47:07;;;;;;;21.47;12.33;;;;;;;4.99;35.05;101877.03;5006442;28;20248;-54
2022/03/14 04:49:34;;;;;;;20.70;14.07;;;;;;;4.86;35.04;101866.94;5005619;28;20315;-54
2022/03/14 04:52:00;;;;;;;20.07;12.03;;;;;;;5.03;35.18;101884.13;5007265;28;20264;-54
2022/03/14 04:54:28;;;;;;;21.00;13.93;;;;;;;4.92;35.92;101885.41;5006997;28;20295;-54
2022/03/14 04:56:54;;;;;;;18.77;12.20;;;;;;;4.81;35.72;101881.44;5007038;28;20756;-54
2022/03/14 04:59:21;;;;;;;19.67;11.07;;;;;;;4.81;36.23;101897.97;5006780;28;20582;-54
2022/03/14 05:01:48;;;;;;;19.47;11.80;;;;;;;4.92;35.85;101898.41;5005682;28;20261;-54
2022/03/14 05:04:14;;;;;;;20.83;13.20;;;;;;;4.75;36.69;101901.22;5006839;28;20257;-53
2022/03/14 05:06:40;;;;;;;17.87;13.27;;;;;;;4.65;36.30;101901.66;5008471;28;20237;-53
2022/03/14 05:09:07;;;;;;;17.03;11.80;;;;;;;4.89;36.07;101900.88;5007639;28;20737;-54
2022/03/14 05:11:35;;;;;;;22.90;12.80;;;;;;;4.79;34.61;101899.63;5008532;28;20249;-53
2022/03/14 05:14:01;;;;;;;18.20;12.57;;;;;;;4.90;35.91;101915.66;5003017;28;20315;-54
2022/03/14 05:16:27;;;;;;;23.27;13.70;;;;;;;4.92;36.42;101901.03;5008015;28;20257;-54
2022/03/14 05:18:54;;;;;;;16.60;11.80;;;;;;;4.84;35.01;101908.47;5005889;28;20314;-54
2022/03/14 05:21:20;;;;;;;19.63;13.03;;;;;;;5.10;36.68;101906.97;5006669;28;20252;-52
2022/03/14 05:23:46;;;;;;;21.53;13.23;;;;;;;4.89;34.78;101906.09;5006245;28;20323;-54
2022/03/14 05:26:12;;;;;;;18.87;12.70;;;;;;;5.05;36.83;101911.06;5006800;28;20665;-54
2022/03/14 05:28:40;;;;;;;18.53;13.03;;;;;;;4.88;36.40;101899.09;5006166;28;20283;-53
2022/03/14 05:31:06;;;;;;;17.63;12.10;;;;;;;4.97;36.25;101899.47;5005869;28;20237;-54
2022/03/14 05:33:33;;;;;;;24.57;13.17;;;;;;;5.01;35.94;101903.97;5006200;28;20280;-53
2022/03/14 05:36:01;;;;;;;18.67;12.40;;;;;;;4.78;35.25;101909.16;5007759;28;20237;-54
2022/03/14 05:38:28;;;;;;;21.00;12.70;;;;;;;4.86;37.20;101911.16;5003189;28;20249;-54
2022/03/14 05:40:55;;;;;;;19.07;13.03;;;;;;;4.84;36.51;101907.59;5006511;28;20233;-55
2022/03/14 05:43:22;;;;;;;23.17;14.07;;;;;;;4.81;36.35;101907.47;5006447;28;20267;-53
2022/03/14 05:45:50;;;;;;;23.70;13.67;;;;;;;4.70;37.40;101910.53;5007230;28;20228;-54
2022/03/14 05:48:16;;;;;;;20.17;13.73;;;;;;;4.63;37.92;101908.47;5005166;28;20280;-53
2022/03/14 05:50:42;;;;;;;19.20;12.70;;;;;;;4.79;37.17;101904.81;5004883;28;20257;-53
2022/03/14 05:53:11;;;;;;;17.93;13.40;;;;;;;4.83;37.23;101908.44;5005848;28;20257;-53
2022/03/14 05:55:37;;;;;;;20.63;12.17;;;;;;;4.78;36.00;101906.53;5007051;28;20733;-53
2022/03/14 05:58:05;;;;;;;20.00;13.70;;;;;;;4.63;35.89;101913.69;5006839;28;20233;-53
2022/03/14 06:00:32;;;;;;;24.23;13.97;;;;;;;4.61;35.79;101907.53;5006459;28;20272;-53
2022/03/14 06:02:59;;;;;;;18.93;12.97;;;;;;;4.65;36.68;101914.66;5006587;28;20265;-53
2022/03/14 06:05:25;;;;;;;19.80;13.60;;;;;;;4.63;36.80;101918.88;5004970;28;20256;-54
2022/03/14 06:07:52;;;;;;;26.53;14.37;;;;;;;4.59;36.03;101922.19;5005856;28;20271;-53
2022/03/14 06:10:18;;;;;;;20.10;13.90;;;;;;;4.52;35.71;101930.56;5006087;28;20260;-54
2022/03/14 06:12:45;;;;;;;20.03;12.73;;;;;;;4.87;37.00;101931.16;5004424;28;20328;-54
2022/03/14 06:15:14;;;;;;;22.63;12.90;;;;;;;4.83;35.47;101926.66;5006259;28;20285;-53
2022/03/14 06:17:41;;;;;;;25.07;13.83;;;;;;;4.53;35.96;101928.03;5005953;28;20769;-54
2022/03/14 06:20:11;;;;;;;17.70;13.10;;;;;;;4.87;37.03;101929.44;5003822;28;20617;-53
2022/03/14 06:22:41;;;;;;;24.17;13.43;;;;;;;4.91;36.63;101939.13;4997152;28;20778;-54
2022/03/14 06:25:09;;;;;;;21.53;14.07;;;;;;;4.88;36.51;101932.91;5001302;28;20945;-54
2022/03/14 06:27:35;;;;;;;21.97;14.73;;;;;;;4.88;35.69;101930.31;5001088;28;20243;-53
2022/03/14 06:30:02;;;;;;;22.50;15.17;;;;;;;4.75;35.79;101931.53;4997995;28;20331;-53
2022/03/14 06:32:34;;;;;;;19.53;13.80;;;;;;;4.86;35.43;101929.38;5005056;28;20316;-53
2022/03/14 06:35:00;;;;;;;21.17;13.43;;;;;;;4.86;35.63;101927.66;5006003;28;20233;-54
2022/03/14 06:37:28;;;;;;;24.07;13.77;;;;;;;4.84;36.11;101933.63;5004601;28;20264;-54
2022/03/14 06:39:54;;;;;;;23.97;13.97;;;;;;;4.92;36.32;101934.84;5004865;28;20233;-53
2022/03/14 06:42:21;;;;;;;20.03;13.43;;;;;;;4.97;36.97;101944.59;5005658;28;20263;-54
2022/03/14 06:44:50;;;;;;;21.07;14.73;;;;;;;4.91;35.83;101938.25;5005890;28;20780;-53
2022/03/14 06:47:17;;;;;;;23.40;14.07;;;;;;;4.99;36.72;101950.78;5004798;28;20320;-54
2022/03/14 06:49:44;;;;;;;24.77;13.87;;;;;;;4.88;36.60;101957.25;5004653;28;20738;-54
2022/03/14 06:52:11;;;;;;;21.40;13.47;;;;;;;4.85;35.70;101951.91;5001701;28;20263;-53
2022/03/14 06:54:39;;;;;;;20.33;12.90;;;;;;;5.07;37.04;101969.31;5010863;28;20257;-55
2022/03/14 06:57:06;;;;;;;18.90;13.03;;;;;;;4.92;35.63;101966.06;5004269;28;20259;-53
2022/03/14 06:59:32;;;;;;;23.83;13.37;;;;;;;4.93;36.15;101973.06;5002708;28;20267;-56
2022/03/14 07:01:58;;;;;;;21.63;13.13;;;;;;;5.11;36.31;101971.19;5004476;28;20253;-54
2022/03/14 07:04:25;;;;;;;25.17;14.13;;;;;;;5.29;36.00;101967.56;5002275;28;20253;-54
2022/03/14 07:06:51;;;;;;;22.27;13.37;;;;;;;5.24;35.22;101967.41;4995464;28;20299;-52
2022/03/14 07:09:18;;;;;;;20.37;13.47;;;;;;;5.26;34.51;101966.63;5004284;28;20252;-54
2022/03/14 07:11:51;;;;;;;21.13;12.70;;;;;;;5.31;34.10;101971.13;5005646;28;20328;-54
2022/03/14 07:14:18;;;;;;;20.43;13.23;;;;;;;5.22;34.46;101969.03;5004713;28;20705;-54
2022/03/14 07:16:44;;;;;;;24.60;12.47;;;;;;;5.45;34.82;101969.97;5005930;28;20236;-53
2022/03/14 07:19:10;;;;;;;21.50;12.37;;;;;;;5.48;33.57;101973.59;5004323;28;20256;-52
2022/03/14 07:21:38;;;;;;;19.70;13.10;;;;;;;5.52;33.01;101974.59;5004221;28;20265;-53
2022/03/14 07:24:05;;;;;;;17.93;11.87;;;;;;;5.67;33.48;101969.09;5003317;28;20236;-53
2022/03/14 07:26:31;;;;;;;20.40;14.07;;;;;;;5.63;33.52;101967.19;5006363;28;20321;-52
2022/03/14 07:28:59;;;;;;;18.63;11.17;;;;;;;5.56;33.14;101973.88;5005391;28;20299;-54
2022/03/14 07:31:25;;;;;;;23.70;13.40;;;;;;;5.51;34.50;101972.81;5004661;28;20376;-53
2022/03/14 07:33:52;;;;;;;17.93;11.87;;;;;;;5.63;33.68;101978.50;5007526;28;20672;-53
2022/03/14 07:36:19;;;;;;;21.13;12.67;;;;;;;5.74;33.81;101977.19;5006588;28;20238;-54
2022/03/14 07:38:46;;;;;;;23.60;12.93;;;;;;;5.94;34.23;101980.59;5005811;28;20315;-53
2022/03/14 07:41:13;;;;;;;19.60;12.80;;;;;;;5.86;34.15;101976.81;5005594;28;20880;-54
2022/03/14 07:43:40;;;;;;;21.03;13.13;;;;;;;5.98;34.47;101989.44;5001427;28;20245;-55
2022/03/14 07:46:08;;;;;;;17.83;12.43;;;;;;;5.95;33.09;101979.75;5003198;28;20236;-54
2022/03/14 07:48:35;;;;;;;18.83;13.77;;;;;;;6.07;33.09;101976.75;4995694;28;20241;-53
2022/03/14 07:51:03;;;;;;;17.20;12.43;;;;;;;6.13;32.67;101986.50;5004731;28;20244;-53
2022/03/14 07:53:29;;;;;;;19.07;11.97;;;;;;;6.32;32.33;101988.97;5000435;28;20746;-53
2022/03/14 07:55:56;;;;;;;18.87;11.83;;;;;;;6.32;31.74;101982.84;5003418;28;20251;-54
2022/03/14 07:58:22;;;;;;;14.87;11.13;;;;;;;6.18;31.88;101983.25;5004109;28;20284;-53
2022/03/14 08:00:48;;;;;;;16.40;11.87;;;;;;;6.35;32.62;101977.75;5004399;28;20245;-54
2022/03/14 08:03:18;;;;;;;18.23;12.80;;;;;;;6.47;32.84;101983.41;5003959;28;20249;-53
2022/03/14 08:05:45;;;;;;;19.90;12.37;;;;;;;6.61;31.68;101976.97;5005539;28;20229;-54
2022/03/14 08:08:15;;;;;;;20.10;12.03;;;;;;;6.73;32.57;101978.22;5004214;28;20328;-54
2022/03/14 08:10:41;;;;;;;17.83;12.60;;;;;;;6.73;31.46;101983.44;5004705;28;20758;-53
2022/03/14 08:13:08;;;;;;;16.47;10.60;;;;;;;6.79;31.42;101975.81;5003406;28;20709;-54
2022/03/14 08:15:36;;;;;;;17.17;11.30;;;;;;;7.06;31.01;101981.09;5003647;28;20271;-54
2022/03/14 08:18:05;;;;;;;15.37;11.33;;;;;;;7.23;30.78;101979.94;5004582;28;20225;-54
2022/03/14 08:20:33;;;;;;;15.13;12.00;;;;;;;7.30;30.77;101981.00;5004175;28;20261;-54
2022/03/14 08:23:02;;;;;;;15.87;10.27;;;;;;;7.33;30.33;101987.19;5003080;28;20364;-53
2022/03/14 08:25:29;;;;;;;18.27;11.40;;;;;;;7.56;30.01;101995.78;5003606;28;20252;-53
2022/03/14 08:27:55;;;;;;;19.23;11.93;;;;;;;7.73;30.77;101982.38;5002535;28;20233;-53
2022/03/14 08:30:22;;;;;;;23.17;11.70;;;;;;;7.74;29.50;101984.13;4995030;28;20233;-53
2022/03/14 08:32:49;;;;;;;21.13;11.50;;;;;;;7.65;29.74;101980.41;5004405;28;20228;-54
2022/03/14 08:35:20;;;;;;;22.47;11.40;;;;;;;7.69;29.39;101981.41;5004439;28;20237;-54
2022/03/14 08:37:49;;;;;;;17.00;12.10;;;;;;;7.82;30.53;101977.41;4999736;28;20240;-54
2022/03/14 08:40:18;;;;;;;17.83;11.73;;;;;;;8.01;29.89;101976.25;4999292;28;20233;-54
2022/03/14 08:42:45;;;;;;;17.63;11.37;;;;;;;8.13;29.78;101964.38;5004995;28;20265;-54
2022/03/14 08:45:13;;;;;;;17.73;11.40;;;;;;;8.26;29.43;101977.84;4996914;28;20316;-54
2022/03/14 08:47:40;;;;;;;16.97;10.20;;;;;;;8.35;29.12;101978.06;5004270;28;20237;-54
2022/03/14 08:50:08;;;;;;;15.10;11.47;;;;;;;8.27;28.57;101983.09;5004262;28;20256;-53
2022/03/14 08:52:35;;;;;;;11.87;10.50;;;;;;;8.32;28.26;101986.75;5004907;28;20284;-53
2022/03/14 08:55:04;;;;;;;14.97;9.43;;;;;;;8.26;28.49;101990.91;5004113;28;20228;-54
2022/03/14 08:57:30;;;;;;;15.20;10.97;;;;;;;8.25;28.79;101986.50;5004165;28;20249;-54
2022/03/14 08:59:56;;;;;;;12.73;9.20;;;;;;;8.31;28.31;101978.84;5004704;28;20741;-54
2022/03/14 09:02:23;;;;;;;12.70;9.80;;;;;;;8.49;28.84;101986.34;5007931;28;20264;-53
2022/03/14 09:04:49;;;;;;;13.63;11.20;;;;;;;8.64;29.14;101978.94;5006705;28;20253;-54
2022/03/14 09:07:25;;;;;;;16.23;11.03;;;;;;;8.95;27.85;101978.00;5007383;28;20229;-54
2022/03/14 09:09:51;;;;;;;14.43;10.40;;;;;;;9.00;27.45;101979.00;5001476;28;20233;-53
2022/03/14 09:12:19;;;;;;;13.03;9.60;;;;;;;9.14;27.16;101986.31;5004304;28;20256;-53
2022/03/14 09:14:46;;;;;;;17.03;10.90;;;;;;;9.10;27.05;101974.00;5007366;28;20734;-54
2022/03/14 09:17:12;;;;;;;14.07;10.30;;;;;;;9.30;28.34;101972.72;5004650;28;20300;-53
2022/03/14 09:19:39;;;;;;;15.93;12.10;;;;;;;9.41;26.45;101973.91;5005819;28;20252;-53
2022/03/14 09:22:05;;;;;;;17.93;10.40;;;;;;;9.42;26.28;101978.28;5006668;28;20758;-53
2022/03/14 09:24:33;;;;;;;14.83;10.70;;;;;;;9.32;26.22;101973.66;5005731;28;20292;-53
2022/03/14 09:27:00;;;;;;;17.07;9.50;;;;;;;9.60;26.99;101966.44;5004775;28;20236;-54
2022/03/14 09:29:28;;;;;;;15.37;10.47;;;;;;;9.73;26.91;101968.50;5005950;28;20233;-53
2022/03/14 09:31:55;;;;;;;13.43;9.87;;;;;;;9.63;26.51;101962.16;5007135;28;20268;-53
2022/03/14 09:34:22;;;;;;;11.43;9.27;;;;;;;9.93;26.54;101959.34;5004698;28;20221;-53
2022/03/14 09:36:48;;;;;;;15.63;10.37;;;;;;;9.99;26.86;101959.44;5003236;28;20249;-53
2022/03/14 09:39:15;;;;;;;13.67;10.13;;;;;;;9.87;27.02;101960.94;5004479;28;20249;-53
2022/03/14 09:41:42;;;;;;;10.37;9.00;;;;;;;10.18;26.71;101960.72;5006240;28;20280;-53
2022/03/14 09:44:10;;;;;;;16.03;10.73;;;;;;;10.33;26.52;101952.31;5007647;28;20345;-53
2022/03/14 09:46:38;;;;;;;11.93;8.67;;;;;;;10.52;26.98;101957.03;5008393;28;20241;-54
2022/03/14 09:49:06;;;;;;;13.73;10.40;;;;;;;10.60;26.68;101953.66;5009587;28;20245;-54
2022/03/14 09:51:32;;;;;;;13.80;9.57;;;;;;;10.61;25.59;101958.09;5006773;28;20237;-53
2022/03/14 09:53:59;;;;;;;15.60;10.53;;;;;;;10.85;25.46;101963.78;5007262;28;20303;-54
2022/03/14 09:56:26;;;;;;;14.73;9.80;;;;;;;10.95;25.49;101960.47;5006652;28;20257;-54
2022/03/14 09:58:53;;;;;;;11.50;9.87;;;;;;;11.03;25.23;101964.97;5006114;28;20217;-54
2022/03/14 10:01:19;;;;;;;11.90;10.27;;;;;;;10.88;25.29;101962.94;5005884;28;20257;-54
2022/03/14 10:03:47;;;;;;;14.20;9.90;;;;;;;10.85;25.98;101958.53;5007736;28;20295;-53
2022/03/14 10:06:13;;;;;;;13.07;9.03;;;;;;;10.77;26.27;101960.13;5005521;28;20964;-53
2022/03/14 10:08:40;;;;;;;11.90;8.30;;;;;;;10.83;25.29;101964.59;5004635;28;20233;-54
2022/03/14 10:11:08;;;;;;;12.73;9.53;;;;;;;10.82;24.89;101962.84;4998061;28;20253;-54
2022/03/14 10:13:35;;;;;;;13.03;8.63;;;;;;;11.10;25.48;101974.72;5003281;28;20249;-53
2022/03/14 10:16:01;;;;;;;12.30;9.37;;;;;;;10.92;24.37;101976.16;4998834;28;20232;-54
2022/03/14 10:18:27;;;;;;;9.80;8.80;;;;;;;10.78;24.25;101961.91;5004762;28;20261;-53
2022/03/14 10:20:57;;;;;;;13.55;11.10;;;;;;;10.85;24.69;101961.16;4997645;28;20900;-54
2022/03/14 10:23:30;;;;;;;11.67;10.10;;;;;;;10.57;25.72;101965.03;4992579;28;20291;-53
2022/03/14 10:25:57;;;;;;;11.87;9.23;;;;;;;10.66;25.37;101956.41;4996014;28;20235;-53
2022/03/14 10:28:23;;;;;;;11.87;9.83;;;;;;;10.85;25.33;101958.53;4999651;28;20279;-53
2022/03/14 10:30:53;;;;;;;11.40;9.37;;;;;;;10.96;25.38;101967.47;4998957;28;20233;-51
2022/03/14 10:33:24;;;;;;;10.63;9.07;;;;;;;10.97;24.51;101969.25;5001026;28;20267;-53
2022/03/14 10:35:55;;;;;;;11.60;8.67;;;;;;;10.92;24.47;101981.41;5001696;28;20279;-52
2022/03/14 10:38:24;;;;;;;10.60;9.50;;;;;;;11.00;25.44;101978.94;4999624;28;20260;-53
2022/03/14 10:40:51;;;;;;;10.50;8.63;;;;;;;11.14;25.05;101981.78;4992634;28;20249;-52
2022/03/14 10:43:28;;;;;;;11.73;8.23;;;;;;;11.28;25.36;101990.78;5000581;28;20352;-53
2022/03/14 10:45:55;;;;;;;12.70;8.73;;;;;;;11.40;25.07;101990.09;4995876;28;20257;-53
2022/03/14 10:48:35;;;;;;;11.27;10.13;;;;;;;11.38;25.81;101978.69;4999461;28;20232;-53
2022/03/14 10:51:05;;;;;;;13.73;8.57;;;;;;;11.50;25.55;101985.84;4999382;28;20236;-53
2022/03/14 10:53:35;;;;;;;10.43;8.77;;;;;;;11.38;25.03;101986.56;4998853;28;20747;-54
2022/03/14 10:56:02;;;;;;;13.10;9.57;;;;;;;11.54;25.40;101992.94;4997617;28;20753;-53
2022/03/14 10:58:30;;;;;;;11.10;9.20;;;;;;;11.56;25.23;101997.38;4995996;28;20295;-53
2022/03/14 11:00:58;;;;;;;14.43;9.23;;;;;;;11.64;25.00;101994.84;4995722;28;21055;-53
2022/03/14 11:03:26;;;;;;;10.13;9.07;;;;;;;11.71;25.22;101989.69;4996820;28;20335;-53
2022/03/14 11:05:54;;;;;;;15.23;10.73;;;;;;;11.64;25.22;101989.56;4999025;28;20765;-53
2022/03/14 11:08:38;;;;;;;11.70;9.10;;;;;;;11.77;25.06;101988.91;4998198;28;20239;-53
2022/03/14 11:11:05;;;;;;;12.88;9.13;;;;;;;12.13;25.08;101974.50;4997020;28;20760;-53
2022/03/14 11:13:32;;;;;;;10.32;8.80;;;;;;;12.05;24.85;101976.16;4996517;28;20318;-53
2022/03/14 11:15:59;;;;;;;11.27;9.07;;;;;;;12.32;24.29;101984.41;4997400;28;20729;-53
2022/03/14 11:18:25;;;;;;;11.25;8.52;;;;;;;12.32;25.19;101979.13;4994679;28;20230;-53